Time;durP1;ratioP1;P1;durP2;ratioP2;P2;SDS_P1;SDS_P2;PMS_P1;PMS_P2;Temp;Humidity;BMP_temperature;BMP_pressure;BME280_temperature;BME280_humidity;BME280_pressure;Samples;Min_cycle;Max_cycle;Signal;HPM_P1;HPM_P2
2020/12/09 00:01:58;;;;;;;21.85;11.70;;;7.10;70.30;;;;;;2449187;56;20974;-71
2020/12/09 00:04:24;;;;;;;19.40;11.15;;;7.10;70.60;;;;;;2232579;56;21277;-71
2020/12/09 00:06:51;;;;;;;20.58;10.52;;;7.10;70.60;;;;;;2238277;56;21469;-71
2020/12/09 00:09:19;;;;;;;18.05;10.32;;;7.10;70.60;;;;;;2449008;55;21064;-71
2020/12/09 00:11:45;;;;;;;18.83;10.05;;;7.10;70.70;;;;;;2235845;55;21798;-71
2020/12/09 00:14:12;;;;;;;19.05;11.10;;;7.10;70.70;;;;;;2224626;55;21799;-71
2020/12/09 00:16:38;;;;;;;19.52;10.45;;;7.10;70.70;;;;;;2234646;56;21818;-71
2020/12/09 00:19:05;;;;;;;18.08;10.45;;;7.10;70.70;;;;;;2457511;55;21039;-72
2020/12/09 00:21:33;;;;;;;17.83;10.30;;;7.20;70.90;;;;;;2447529;56;21436;-72
2020/12/09 00:24:01;;;;;;;18.70;10.23;;;7.20;70.80;;;;;;2461353;55;20921;-71
2020/12/09 00:26:29;;;;;;;19.42;10.18;;;7.20;70.70;;;;;;2233464;55;21019;-71
2020/12/09 00:28:55;;;;;;;18.30;10.23;;;7.20;70.80;;;;;;2228181;55;21573;-71
2020/12/09 00:31:24;;;;;;;17.17;9.35;;;7.20;70.80;;;;;;2224228;55;21083;-71
2020/12/09 00:33:52;;;;;;;18.08;9.35;;;7.20;70.80;;;;;;2236423;56;21703;-71
2020/12/09 00:36:41;;;;;;;21.67;11.07;;;7.30;70.90;;;;;;2240758;56;21496;-72
2020/12/09 00:39:08;;;;;;;16.30;9.25;;;7.30;70.50;;;;;;2417148;56;21026;-72
2020/12/09 00:41:34;;;;;;;19.10;10.48;;;7.30;70.80;;;;;;2452295;55;21047;-71
2020/12/09 00:44:04;;;;;;;18.98;10.82;;;7.30;71.50;;;;;;2237482;55;20984;-71
2020/12/09 00:46:31;;;;;;;20.77;11.23;;;7.30;70.80;;;;;;2238481;56;20977;-71
2020/12/09 00:49:08;;;;;;;22.87;11.60;;;7.30;70.80;;;;;;2236782;56;21414;-71
2020/12/09 00:51:35;;;;;;;21.10;11.98;;;7.40;70.70;;;;;;2448135;55;20988;-71
2020/12/09 00:54:02;;;;;;;19.20;10.70;;;7.30;70.70;;;;;;2237510;56;21222;-71
2020/12/09 00:56:28;;;;;;;17.87;9.45;;;7.30;70.70;;;;;;2233918;55;21530;-71
2020/12/09 00:58:55;;;;;;;21.17;11.02;;;7.30;70.70;;;;;;2227624;55;20999;-71
2020/12/09 01:01:21;;;;;;;22.15;11.73;;;7.40;70.80;;;;;;2454099;55;20957;-71
2020/12/09 01:03:49;;;;;;;21.33;11.68;;;7.40;70.80;;;;;;2453190;55;21073;-71
2020/12/09 01:06:15;;;;;;;20.70;12.00;;;7.40;70.80;;;;;;2231504;56;21580;-72
2020/12/09 01:08:42;;;;;;;24.73;12.75;;;7.40;71.40;;;;;;2238779;56;20981;-71
2020/12/09 01:11:11;;;;;;;22.08;12.70;;;7.40;70.70;;;;;;2462965;55;20949;-71
2020/12/09 01:13:44;;;;;;;22.77;11.77;;;7.40;71.50;;;;;;2412720;56;20992;-71
2020/12/09 01:16:16;;;;;;;20.67;11.32;;;7.40;70.80;;;;;;2443730;56;21591;-71
2020/12/09 01:18:44;;;;;;;22.85;11.77;;;7.50;70.80;;;;;;2236406;56;21035;-71
2020/12/09 01:21:10;;;;;;;17.55;10.07;;;7.40;70.80;;;;;;2442479;55;21846;-71
2020/12/09 01:23:37;;;;;;;23.30;12.15;;;7.50;70.80;;;;;;2224030;55;20950;-72
2020/12/09 01:26:09;;;;;;;23.70;12.90;;;7.50;70.80;;;;;;2225286;55;21006;-71
2020/12/09 01:28:36;;;;;;;27.77;13.93;;;7.50;70.60;;;;;;2231212;56;20996;-72
2020/12/09 01:31:02;;;;;;;23.38;11.98;;;7.50;70.70;;;;;;2237680;56;21033;-71
2020/12/09 01:33:29;;;;;;;36.13;17.12;;;7.50;70.80;;;;;;2226317;56;21074;-71
2020/12/09 01:35:55;;;;;;;35.00;15.98;;;7.50;70.80;;;;;;2241230;56;21884;-71
2020/12/09 01:38:21;;;;;;;31.27;15.25;;;7.50;70.80;;;;;;2224543;56;21020;-72
2020/12/09 01:40:48;;;;;;;25.00;12.90;;;7.50;70.80;;;;;;2238137;56;20999;-71
2020/12/09 01:43:16;;;;;;;23.85;13.10;;;7.50;70.80;;;;;;2443931;55;20965;-71
2020/12/09 01:45:42;;;;;;;23.65;12.30;;;7.50;70.80;;;;;;2241492;55;21079;-72
2020/12/09 01:48:09;;;;;;;20.15;10.98;;;7.50;70.70;;;;;;2227161;56;22062;-72
2020/12/09 01:50:36;;;;;;;23.65;12.20;;;7.60;70.70;;;;;;2453111;55;20983;-71
2020/12/09 01:53:03;;;;;;;37.10;17.17;;;7.60;70.70;;;;;;2228779;55;20978;-72
2020/12/09 01:55:29;;;;;;;33.97;15.35;;;7.60;70.60;;;;;;2224619;55;21505;-71
2020/12/09 01:57:56;;;;;;;35.92;15.52;;;7.60;70.60;;;;;;2226256;55;20955;-71
2020/12/09 02:00:22;;;;;;;27.83;14.38;;;7.60;70.70;;;;;;2234314;56;20998;-71
2020/12/09 02:02:50;;;;;;;23.75;12.60;;;7.60;70.70;;;;;;2449058;56;21040;-71
2020/12/09 02:05:16;;;;;;;20.55;10.68;;;7.60;70.60;;;;;;2229795;56;21043;-71
2020/12/09 02:07:43;;;;;;;20.75;11.82;;;7.60;70.60;;;;;;2444985;56;20991;-71
2020/12/09 02:10:12;;;;;;;21.30;11.50;;;7.60;70.60;;;;;;2458989;55;20976;-72
2020/12/09 02:12:39;;;;;;;21.42;11.05;;;7.60;70.60;;;;;;2227886;55;21059;-71
2020/12/09 02:15:07;;;;;;;21.17;12.13;;;7.60;70.60;;;;;;2228128;55;21110;-71
2020/12/09 02:17:33;;;;;;;22.50;12.65;;;7.60;70.50;;;;;;2240559;55;20965;-72
2020/12/09 02:20:01;;;;;;;24.95;13.07;;;7.60;70.50;;;;;;2444908;55;20964;-72
2020/12/09 02:22:28;;;;;;;29.45;15.35;;;7.60;70.50;;;;;;2235438;55;21852;-72
2020/12/09 02:24:57;;;;;;;24.52;12.68;;;7.60;70.60;;;;;;2443992;55;20969;-71
2020/12/09 02:27:24;;;;;;;24.33;13.93;;;7.60;70.60;;;;;;2462152;55;21290;-71
2020/12/09 02:29:50;;;;;;;27.33;13.52;;;7.60;70.60;;;;;;2453764;56;21098;-71
2020/12/09 02:32:21;;;;;;;27.02;14.40;;;7.60;70.60;;;;;;2231748;55;20963;-71
2020/12/09 02:34:48;;;;;;;27.77;14.93;;;7.60;70.60;;;;;;2445591;55;21036;-72
2020/12/09 02:37:14;;;;;;;22.67;12.63;;;7.60;70.60;;;;;;2448129;55;20996;-71
2020/12/09 02:39:41;;;;;;;24.83;13.13;;;7.60;70.60;;;;;;2238426;55;21151;-71
2020/12/09 02:42:11;;;;;;;22.48;11.75;;;7.60;70.60;;;;;;2237969;56;20965;-71
2020/12/09 02:44:41;;;;;;;19.87;10.95;;;7.60;70.50;;;;;;2232857;56;20986;-71
2020/12/09 02:47:08;;;;;;;23.48;12.68;;;7.60;70.50;;;;;;2455675;56;20976;-71
2020/12/09 02:49:34;;;;;;;22.58;12.30;;;7.60;70.40;;;;;;2237391;55;20991;-71
2020/12/09 02:52:00;;;;;;;19.50;11.75;;;7.60;70.30;;;;;;2442088;55;21010;-71
2020/12/09 02:54:27;;;;;;;22.98;12.55;;;7.60;70.30;;;;;;2461013;55;21059;-71
2020/12/09 02:56:53;;;;;;;20.65;12.05;;;7.60;70.30;;;;;;2462978;55;20956;-71
2020/12/09 02:59:20;;;;;;;19.83;11.50;;;7.60;70.20;;;;;;2444113;56;20964;-71
2020/12/09 03:01:46;;;;;;;20.08;11.65;;;7.60;70.20;;;;;;2462019;55;21449;-71
2020/12/09 03:04:13;;;;;;;21.50;11.05;;;7.60;70.20;;;;;;2461296;56;21874;-71
2020/12/09 03:06:41;;;;;;;18.90;11.02;;;7.60;70.20;;;;;;2461507;55;21532;-71
2020/12/09 03:09:08;;;;;;;19.95;11.65;;;7.60;70.20;;;;;;2240632;56;21007;-71
2020/12/09 03:11:35;;;;;;;17.30;9.85;;;7.60;70.30;;;;;;2224464;56;20971;-71
2020/12/09 03:14:04;;;;;;;17.75;10.32;;;7.60;70.30;;;;;;2461201;55;21004;-71
2020/12/09 03:16:31;;;;;;;16.37;9.38;;;7.60;70.30;;;;;;2239200;56;20980;-72
2020/12/09 03:18:59;;;;;;;19.02;10.07;;;7.50;70.20;;;;;;2238273;56;21004;-71
2020/12/09 03:21:26;;;;;;;17.98;10.40;;;7.50;70.30;;;;;;2462295;55;21002;-71
2020/12/09 03:23:57;;;;;;;18.60;9.52;;;7.50;70.30;;;;;;2444110;56;20981;-71
2020/12/09 03:26:27;;;;;;;17.15;9.75;;;7.50;70.20;;;;;;2462266;56;20913;-71
2020/12/09 03:28:53;;;;;;;18.10;10.52;;;7.50;70.20;;;;;;2445733;55;21307;-72
2020/12/09 03:31:20;;;;;;;18.15;9.98;;;7.50;70.10;;;;;;2227807;56;21043;-72
2020/12/09 03:33:46;;;;;;;18.25;10.05;;;7.50;70.10;;;;;;2459925;55;21835;-71
2020/12/09 03:36:13;;;;;;;18.95;10.93;;;7.50;70.10;;;;;;2445595;56;21866;-72
2020/12/09 03:38:39;;;;;;;23.20;11.88;;;7.50;70.00;;;;;;2229042;56;20971;-71
2020/12/09 03:41:06;;;;;;;19.73;12.00;;;7.50;70.00;;;;;;2234270;56;20944;-72
2020/12/09 03:43:33;;;;;;;21.40;11.57;;;7.40;69.80;;;;;;2449989;55;21938;-72
2020/12/09 03:46:00;;;;;;;21.52;12.75;;;7.40;69.80;;;;;;2448241;55;21759;-72
2020/12/09 03:48:26;;;;;;;23.15;12.45;;;7.40;69.80;;;;;;2444289;55;21780;-72
2020/12/09 03:50:54;;;;;;;21.77;12.13;;;7.30;69.60;;;;;;2237952;56;21061;-72
2020/12/09 03:53:23;;;;;;;21.15;11.73;;;7.30;69.70;;;;;;2451709;55;21058;-72
2020/12/09 03:55:50;;;;;;;20.73;11.80;;;7.30;69.80;;;;;;2227191;55;21041;-72
2020/12/09 03:58:17;;;;;;;20.15;11.02;;;7.20;69.80;;;;;;2238456;56;21115;-72
2020/12/09 04:00:44;;;;;;;20.90;11.38;;;7.20;69.90;;;;;;2234427;55;20964;-72
2020/12/09 04:03:11;;;;;;;17.80;10.35;;;7.20;69.90;;;;;;2454800;55;21790;-71
2020/12/09 04:05:37;;;;;;;23.40;11.93;;;7.20;70.00;;;;;;2238303;56;21275;-72
2020/12/09 04:08:11;;;;;;;24.17;12.30;;;7.10;70.00;;;;;;2448954;55;21018;-72
2020/12/09 04:10:40;;;;;;;22.62;12.40;;;7.20;70.00;;;;;;2454156;55;21012;-71
2020/12/09 04:13:07;;;;;;;21.90;11.95;;;7.20;70.20;;;;;;2229853;55;21869;-71
2020/12/09 04:15:36;;;;;;;22.67;12.25;;;7.10;70.20;;;;;;2445822;55;20955;-71
2020/12/09 04:18:03;;;;;;;24.35;12.68;;;7.10;70.30;;;;;;2206096;56;21573;-71
2020/12/09 04:20:30;;;;;;;22.52;12.57;;;7.10;70.30;;;;;;2238602;55;20968;-71
2020/12/09 04:22:58;;;;;;;20.62;12.27;;;7.10;70.40;;;;;;2455784;55;21509;-71
2020/12/09 04:25:24;;;;;;;19.90;11.07;;;7.10;70.40;;;;;;2225207;55;21023;-72
2020/12/09 04:27:51;;;;;;;23.95;13.52;;;7.10;70.50;;;;;;2446288;56;21023;-71
2020/12/09 04:30:18;;;;;;;22.25;12.35;;;7.10;70.50;;;;;;2228337;56;21599;-71
2020/12/09 04:32:44;;;;;;;21.70;12.52;;;7.10;70.60;;;;;;2227686;56;21060;-71
2020/12/09 04:35:11;;;;;;;21.77;12.37;;;7.10;70.60;;;;;;2461035;55;21009;-71
2020/12/09 04:37:37;;;;;;;21.48;12.30;;;7.10;70.60;;;;;;2238538;56;21007;-71
2020/12/09 04:40:03;;;;;;;20.42;12.13;;;7.10;70.60;;;;;;2238986;56;21195;-71
2020/12/09 04:42:30;;;;;;;23.62;13.43;;;7.10;70.70;;;;;;2444902;55;20964;-71
2020/12/09 04:44:56;;;;;;;26.02;14.55;;;7.10;70.70;;;;;;2224803;55;21018;-71
2020/12/09 04:47:27;;;;;;;23.87;13.10;;;7.10;70.70;;;;;;2459597;55;20969;-71
2020/12/09 04:51:41;;;;;;;23.50;12.95;;;7.10;70.70;;;;;;2226705;56;21918;-71
2020/12/09 04:54:13;;;;;;;25.23;12.98;;;7.10;70.30;;;;;;2206592;57;21028;-71
2020/12/09 04:56:44;;;;;;;19.75;10.68;;;7.10;70.70;;;;;;2207581;57;21559;-71
2020/12/09 04:59:14;;;;;;;24.02;12.37;;;7.10;70.80;;;;;;2420669;55;20954;-71
2020/12/09 05:02:09;;;;;;;30.15;14.68;;;7.10;70.90;;;;;;2453611;56;21034;-71
2020/12/09 05:04:35;;;;;;;25.58;13.90;;;7.10;70.90;;;;;;2453757;55;22203;-71
2020/12/09 05:07:09;;;;;;;27.25;13.70;;;7.10;70.90;;;;;;2226478;56;20976;-71
2020/12/09 05:09:45;;;;;;;23.62;11.77;;;7.10;70.90;;;;;;2237676;56;21475;-71
2020/12/09 05:12:14;;;;;;;24.55;12.70;;;7.10;70.90;;;;;;2417739;56;20945;-71
2020/12/09 05:14:56;;;;;;;23.85;12.48;;;7.20;71.10;;;;;;2238124;56;21033;-70
2020/12/09 05:17:24;;;;;;;26.33;13.57;;;7.20;71.00;;;;;;2462115;55;21004;-70
2020/12/09 05:19:50;;;;;;;24.48;12.52;;;7.20;71.10;;;;;;2238265;56;21013;-71
2020/12/09 05:22:21;;;;;;;24.00;12.55;;;7.20;71.20;;;;;;2236806;56;21055;-70
2020/12/09 05:24:47;;;;;;;19.87;11.48;;;7.20;71.20;;;;;;2237065;56;21052;-70
2020/12/09 05:27:14;;;;;;;21.12;11.25;;;7.20;71.30;;;;;;2239226;56;21044;-71
2020/12/09 05:29:57;;;;;;;21.92;11.23;;;7.20;71.30;;;;;;2440188;55;20950;-71
2020/12/09 05:32:25;;;;;;;24.27;11.27;;;7.30;71.30;;;;;;2224321;55;21114;-71
2020/12/09 05:34:51;;;;;;;24.63;11.30;;;7.20;71.30;;;;;;2239019;56;21486;-71
2020/12/09 05:37:17;;;;;;;23.70;11.25;;;7.30;71.30;;;;;;2224785;56;21042;-71
2020/12/09 05:39:51;;;;;;;22.60;11.20;;;7.30;71.30;;;;;;2206875;56;21134;-71
2020/12/09 05:42:19;;;;;;;22.42;12.02;;;7.30;71.20;;;;;;2209021;56;20928;-71
2020/12/09 05:44:46;;;;;;;27.48;14.35;;;7.30;71.30;;;;;;2445327;56;21011;-71
2020/12/09 05:47:12;;;;;;;26.05;14.52;;;7.30;71.20;;;;;;2450749;56;20979;-71
2020/12/09 05:49:40;;;;;;;21.67;11.43;;;7.30;70.90;;;;;;2228698;55;21035;-71
2020/12/09 05:52:24;;;;;;;23.85;12.77;;;7.30;70.90;;;;;;2229456;55;21092;-71
2020/12/09 05:54:56;;;;;;;23.62;13.32;;;7.30;70.70;;;;;;2239852;56;20924;-71
2020/12/09 05:57:24;;;;;;;26.67;12.57;;;7.30;70.80;;;;;;2238819;56;21724;-71
2020/12/09 05:59:53;;;;;;;23.38;13.02;;;7.30;70.80;;;;;;2238710;56;21021;-71
2020/12/09 06:02:20;;;;;;;23.23;12.37;;;7.30;70.90;;;;;;2460638;55;21048;-71
2020/12/09 06:04:57;;;;;;;22.48;12.55;;;7.30;71.00;;;;;;2239835;56;21019;-71
2020/12/09 06:07:25;;;;;;;22.52;12.90;;;7.30;71.00;;;;;;2461616;55;21040;-70
2020/12/09 06:10:34;;;;;;;19.48;10.80;;;7.30;71.20;;;;;;2237287;56;21044;-70
2020/12/09 06:13:00;;;;;;;25.42;12.05;;;7.30;71.10;;;;;;2449665;55;20990;-71
2020/12/09 06:15:31;;;;;;;18.58;10.02;;;7.30;71.20;;;;;;2223479;55;21066;-71
2020/12/09 06:18:13;;;;;;;20.15;10.48;;;7.30;71.20;;;;;;2238259;56;21060;-70
2020/12/09 06:20:43;;;;;;;20.62;11.00;;;7.30;71.10;;;;;;2459313;55;21020;-71
2020/12/09 06:23:13;;;;;;;19.92;10.40;;;7.30;71.20;;;;;;2236065;55;20958;-71
2020/12/09 06:25:43;;;;;;;20.48;10.77;;;7.30;71.10;;;;;;2225883;55;21785;-70
2020/12/09 06:28:11;;;;;;;21.02;11.30;;;7.30;71.20;;;;;;2445999;56;22015;-71
2020/12/09 06:30:37;;;;;;;21.67;10.48;;;7.30;71.10;;;;;;2441299;55;21043;-71
2020/12/09 06:33:03;;;;;;;23.08;11.45;;;7.30;71.10;;;;;;2232471;56;20969;-71
2020/12/09 06:35:31;;;;;;;21.27;11.77;;;7.20;71.00;;;;;;2460983;56;20957;-71
2020/12/09 06:39:32;;;;;;;21.23;11.00;;;7.30;71.00;;;;;;2241782;56;21457;-70
2020/12/09 06:42:08;;;;;;;19.87;9.65;;;7.40;70.70;;;;;;2456796;55;21028;-71
2020/12/09 06:44:47;;;;;;;20.75;11.23;;;7.40;70.90;;;;;;2240575;56;21013;-71
2020/12/09 06:47:15;;;;;;;22.08;11.20;;;7.30;70.80;;;;;;2444092;55;20986;-70
2020/12/09 06:49:42;;;;;;;19.62;11.05;;;7.30;71.00;;;;;;2227322;55;21820;-71
2020/12/09 06:52:28;;;;;;;21.35;11.18;;;7.40;71.20;;;;;;2228326;55;21031;-71
2020/12/09 06:54:55;;;;;;;18.58;9.65;;;7.40;71.10;;;;;;2417516;56;21039;-71
2020/12/09 06:57:40;;;;;;;21.10;9.93;;;7.40;71.90;;;;;;2457837;55;21005;-71
2020/12/09 07:00:20;;;;;;;24.23;12.45;;;7.30;71.10;;;;;;2242259;56;21047;-72
2020/12/09 07:02:51;;;;;;;21.98;12.55;;;7.40;71.00;;;;;;2228507;56;21060;-71
2020/12/09 07:05:35;;;;;;;26.55;13.65;;;7.40;71.10;;;;;;2446817;56;21005;-71
2020/12/09 07:08:04;;;;;;;24.42;12.25;;;7.30;70.80;;;;;;2237158;56;20999;-71
2020/12/09 07:10:35;;;;;;;24.80;12.82;;;7.30;70.80;;;;;;2235063;56;20952;-71
2020/12/09 07:13:06;;;;;;;21.48;11.98;;;7.20;70.70;;;;;;2451194;55;21047;-71
2020/12/09 07:15:33;;;;;;;23.08;12.32;;;7.30;70.80;;;;;;2234993;55;21067;-71
2020/12/09 07:18:00;;;;;;;20.92;11.25;;;7.30;70.90;;;;;;2462495;55;21572;-72
2020/12/09 07:20:26;;;;;;;21.17;10.70;;;7.30;70.90;;;;;;2238320;56;21012;-72
2020/12/09 07:22:57;;;;;;;23.75;11.90;;;7.30;71.00;;;;;;2450680;55;20991;-72
2020/12/09 07:25:25;;;;;;;23.67;11.30;;;7.30;70.90;;;;;;2224226;55;20982;-71
2020/12/09 07:27:51;;;;;;;21.40;10.52;;;7.30;71.00;;;;;;2460880;55;20980;-72
2020/12/09 07:30:19;;;;;;;20.90;10.27;;;7.30;71.10;;;;;;2232402;55;21847;-71
2020/12/09 07:32:47;;;;;;;20.88;10.68;;;7.30;71.10;;;;;;2227811;55;21128;-72
2020/12/09 07:35:13;;;;;;;19.85;10.38;;;7.20;70.90;;;;;;2454862;55;21052;-72
2020/12/09 07:37:44;;;;;;;20.73;10.32;;;7.20;71.00;;;;;;2237925;56;21868;-72
2020/12/09 07:40:14;;;;;;;;;;;7.20;70.90;;;;;;2242243;56;20960;-72
2020/12/09 07:42:41;;;;;;;16.27;8.18;;;7.30;70.50;;;;;;2462209;55;20619;-71
2020/12/09 07:45:17;;;;;;;18.87;9.65;;;7.30;71.00;;;;;;2448733;55;21052;-71
2020/12/09 07:47:44;;;;;;;25.02;12.45;;;7.30;71.10;;;;;;2236929;55;21048;-72
2020/12/09 07:50:11;;;;;;;21.40;11.07;;;7.20;71.00;;;;;;2461566;55;21004;-72
2020/12/09 07:52:39;;;;;;;23.02;12.05;;;7.20;70.90;;;;;;2224145;55;21030;-72
2020/12/09 07:55:13;;;;;;;24.17;13.35;;;7.20;70.90;;;;;;2444269;56;21031;-71
2020/12/09 07:57:40;;;;;;;25.55;13.40;;;7.20;70.80;;;;;;2445461;55;21783;-72
2020/12/09 08:00:13;;;;;;;23.00;12.02;;;7.20;70.90;;;;;;2227453;55;20961;-72
2020/12/09 08:02:41;;;;;;;23.12;12.82;;;7.20;70.90;;;;;;2237656;56;21036;-72
2020/12/09 08:05:10;;;;;;;22.15;11.98;;;7.20;70.90;;;;;;2461494;56;21081;-72
2020/12/09 08:07:56;;;;;;;22.25;12.55;;;7.20;70.80;;;;;;2230102;56;20995;-72
2020/12/09 08:11:48;;;;;;;20.55;10.50;;;7.20;70.80;;;;;;2450142;55;20957;-72
2020/12/09 08:14:15;;;;;;;21.77;10.85;;;7.10;70.40;;;;;;2240064;56;21436;-72
2020/12/09 08:16:43;;;;;;;18.58;10.10;;;7.10;71.00;;;;;;2223153;55;21121;-72
2020/12/09 08:19:11;;;;;;;20.40;10.35;;;7.10;71.10;;;;;;2231323;55;20984;-72
2020/12/09 08:21:38;;;;;;;20.58;10.50;;;7.10;71.20;;;;;;2461760;55;21802;-72
2020/12/09 08:24:11;;;;;;;18.85;10.10;;;7.10;71.30;;;;;;2206601;57;20949;-72
2020/12/09 08:26:38;;;;;;;18.92;9.65;;;7.10;71.30;;;;;;2210611;56;21011;-72
2020/12/09 08:29:05;;;;;;;21.02;11.55;;;7.20;71.40;;;;;;2451605;55;20953;-72
2020/12/09 08:31:31;;;;;;;16.87;9.07;;;7.20;71.40;;;;;;2235970;56;21019;-72
2020/12/09 08:34:00;;;;;;;18.42;9.90;;;7.20;71.50;;;;;;2227049;56;21587;-72
2020/12/09 08:36:31;;;;;;;21.83;11.88;;;7.20;71.40;;;;;;2231349;56;20965;-72
2020/12/09 08:38:58;;;;;;;18.12;10.00;;;7.20;71.30;;;;;;2442232;55;20970;-72
2020/12/09 08:41:35;;;;;;;21.48;11.23;;;7.20;71.30;;;;;;2227125;55;20986;-72
2020/12/09 08:44:07;;;;;;;20.77;10.85;;;7.20;71.20;;;;;;2443090;55;21079;-72
2020/12/09 08:46:34;;;;;;;16.15;8.70;;;7.20;71.40;;;;;;2229447;55;21234;-72
2020/12/09 08:49:03;;;;;;;18.58;9.20;;;7.20;71.40;;;;;;2225770;55;21016;-72
2020/12/09 08:51:30;;;;;;;17.00;8.85;;;7.20;71.40;;;;;;2232463;56;20974;-72
2020/12/09 08:53:57;;;;;;;21.55;11.00;;;7.20;71.40;;;;;;2442010;55;20999;-72
2020/12/09 08:56:25;;;;;;;21.65;11.43;;;7.30;71.60;;;;;;2442201;55;20985;-72
2020/12/09 08:58:51;;;;;;;24.35;12.48;;;7.30;71.60;;;;;;2458836;55;20979;-72
2020/12/09 09:01:18;;;;;;;23.02;11.00;;;7.30;71.50;;;;;;2229588;56;21558;-72
2020/12/09 09:03:46;;;;;;;22.73;12.18;;;7.30;71.50;;;;;;2234583;56;20980;-72
2020/12/09 09:06:13;;;;;;;21.10;11.18;;;7.30;71.30;;;;;;2448748;55;20967;-72
2020/12/09 09:08:40;;;;;;;20.08;10.77;;;7.30;71.30;;;;;;2235576;56;22038;-72
2020/12/09 09:11:06;;;;;;;22.08;11.02;;;7.30;71.30;;;;;;2226928;56;21123;-72
2020/12/09 09:13:33;;;;;;;20.33;10.55;;;7.30;71.30;;;;;;2447343;55;21579;-72
2020/12/09 09:16:09;;;;;;;21.10;9.93;;;7.30;71.30;;;;;;2228613;55;20960;-72
2020/12/09 09:18:38;;;;;;;19.48;10.25;;;7.30;71.20;;;;;;2225655;55;21436;-72
2020/12/09 09:21:04;;;;;;;17.17;9.98;;;7.30;71.30;;;;;;2238238;56;20972;-72
2020/12/09 09:23:31;;;;;;;21.45;10.57;;;7.30;71.30;;;;;;2227872;55;22063;-73
2020/12/09 09:26:11;;;;;;;21.35;10.48;;;7.30;71.40;;;;;;2230767;56;20937;-73
2020/12/09 09:28:38;;;;;;;18.25;9.95;;;7.30;71.40;;;;;;2461423;55;21025;-73
2020/12/09 09:31:06;;;;;;;17.60;8.93;;;7.40;71.50;;;;;;2443692;55;21091;-72
2020/12/09 09:33:32;;;;;;;17.90;9.05;;;7.40;71.50;;;;;;2224428;55;21031;-73
2020/12/09 09:35:58;;;;;;;17.05;9.00;;;7.40;71.50;;;;;;2231217;56;20947;-73
2020/12/09 09:38:25;;;;;;;18.40;9.23;;;7.40;71.60;;;;;;2224455;55;21421;-73
2020/12/09 09:40:56;;;;;;;22.08;10.80;;;7.40;71.60;;;;;;2228787;55;21083;-73
2020/12/09 09:43:22;;;;;;;19.83;9.90;;;7.40;71.60;;;;;;2453270;55;21837;-73
2020/12/09 09:45:50;;;;;;;19.33;10.40;;;7.40;71.60;;;;;;2230297;55;21006;-73
2020/12/09 09:48:19;;;;;;;18.02;9.80;;;7.40;72.20;;;;;;2207848;56;21576;-73
2020/12/09 09:50:46;;;;;;;20.37;10.90;;;7.40;71.70;;;;;;2230783;56;20965;-73
2020/12/09 09:53:13;;;;;;;18.58;9.95;;;7.50;71.80;;;;;;2228261;56;21794;-72
2020/12/09 09:55:40;;;;;;;24.30;11.32;;;7.50;71.80;;;;;;2455292;55;21099;-72
2020/12/09 09:58:06;;;;;;;21.48;11.00;;;7.50;71.60;;;;;;2442952;55;20987;-73
2020/12/09 10:00:36;;;;;;;21.73;11.45;;;7.50;71.50;;;;;;2223880;55;20998;-73
2020/12/09 10:03:03;;;;;;;22.48;12.23;;;7.50;71.30;;;;;;2442585;56;20999;-73
2020/12/09 10:05:30;;;;;;;21.33;11.25;;;7.50;71.30;;;;;;2238222;56;21379;-73
2020/12/09 10:07:56;;;;;;;26.58;14.73;;;7.50;71.40;;;;;;2462152;55;21036;-73
2020/12/09 10:10:24;;;;;;;24.20;13.98;;;7.50;71.40;;;;;;2445833;56;21033;-73
2020/12/09 10:12:51;;;;;;;21.90;12.30;;;7.50;71.20;;;;;;2238032;56;20980;-72
2020/12/09 10:15:17;;;;;;;21.87;11.63;;;7.50;71.20;;;;;;2228472;56;21117;-73
2020/12/09 10:17:44;;;;;;;20.27;10.85;;;7.50;71.30;;;;;;2225821;55;21006;-73
2020/12/09 10:20:10;;;;;;;19.67;10.30;;;7.50;71.30;;;;;;2458920;55;21229;-73
2020/12/09 10:22:37;;;;;;;17.15;9.65;;;7.50;71.40;;;;;;2238684;56;21016;-73
2020/12/09 10:25:04;;;;;;;19.95;10.63;;;7.50;71.40;;;;;;2238523;56;21449;-72
2020/12/09 10:27:31;;;;;;;19.52;9.48;;;7.50;71.50;;;;;;2238860;55;21025;-73
2020/12/09 10:29:58;;;;;;;19.00;10.30;;;7.50;71.50;;;;;;2241157;56;21052;-73
2020/12/09 10:32:26;;;;;;;17.12;8.65;;;7.50;71.60;;;;;;2226206;55;20958;-73
2020/12/09 10:34:52;;;;;;;17.67;8.88;;;7.50;71.80;;;;;;2208308;57;21458;-72
2020/12/09 10:37:19;;;;;;;17.65;9.00;;;7.60;71.90;;;;;;2238894;56;21061;-73
2020/12/09 10:39:51;;;;;;;21.73;10.63;;;7.60;72.00;;;;;;2444889;56;20987;-73
2020/12/09 10:42:20;;;;;;;18.92;8.77;;;7.60;72.00;;;;;;2235039;56;22926;-73
2020/12/09 10:44:47;;;;;;;16.05;8.07;;;7.60;71.90;;;;;;2229925;56;20945;-73
2020/12/09 10:47:15;;;;;;;15.45;8.23;;;7.60;71.80;;;;;;2461240;55;21005;-73
2020/12/09 10:49:44;;;;;;;15.98;8.70;;;7.70;71.80;;;;;;2461719;55;21024;-73
2020/12/09 10:52:20;;;;;;;15.15;7.68;;;7.70;71.90;;;;;;2452706;56;21027;-73
2020/12/09 10:54:47;;;;;;;16.73;8.07;;;7.70;71.70;;;;;;2232658;55;21376;-72
2020/12/09 10:57:13;;;;;;;15.90;7.82;;;7.70;71.70;;;;;;2207074;55;21023;-73
2020/12/09 10:59:41;;;;;;;14.85;7.85;;;7.70;71.70;;;;;;2234237;56;21068;-73
2020/12/09 11:02:08;;;;;;;13.57;7.55;;;7.70;71.70;;;;;;2238757;56;20940;-73
2020/12/09 11:04:35;;;;;;;14.15;6.93;;;7.80;71.80;;;;;;2235602;56;20982;-73
2020/12/09 11:07:08;;;;;;;12.07;7.15;;;7.80;71.80;;;;;;2238835;56;20953;-73
2020/12/09 11:09:40;;;;;;;13.10;6.95;;;7.80;71.70;;;;;;2242886;56;22641;-73
2020/12/09 11:12:06;;;;;;;14.18;6.62;;;7.80;71.80;;;;;;2225166;55;21470;-73
2020/12/09 11:14:36;;;;;;;14.48;7.22;;;7.80;71.70;;;;;;2238311;56;21065;-72
2020/12/09 11:17:03;;;;;;;11.27;6.25;;;7.80;71.70;;;;;;2462554;55;20960;-73
2020/12/09 11:19:30;;;;;;;13.73;7.22;;;7.80;71.50;;;;;;2461086;55;21020;-73
2020/12/09 11:21:57;;;;;;;15.30;7.45;;;7.80;71.50;;;;;;2239188;56;21507;-73
2020/12/09 11:24:24;;;;;;;13.60;7.20;;;7.80;71.50;;;;;;2226231;56;22440;-73
2020/12/09 11:26:50;;;;;;;12.93;6.90;;;7.80;71.40;;;;;;2461861;55;20961;-73
2020/12/09 11:29:17;;;;;;;9.57;5.68;;;7.80;71.30;;;;;;2240376;56;20976;-73
2020/12/09 11:31:43;;;;;;;11.43;5.90;;;7.80;71.10;;;;;;2445744;55;21099;-73
2020/12/09 11:34:10;;;;;;;10.25;5.65;;;7.80;71.10;;;;;;2237258;56;21004;-73
2020/12/09 11:36:36;;;;;;;10.98;5.78;;;7.80;71.10;;;;;;2462365;56;20969;-73
2020/12/09 11:39:04;;;;;;;9.38;5.20;;;7.80;71.00;;;;;;2238516;56;20991;-73
2020/12/09 11:41:33;;;;;;;10.20;5.57;;;7.80;70.80;;;;;;2418442;56;20969;-73
2020/12/09 11:44:00;;;;;;;11.02;5.12;;;7.80;70.70;;;;;;2234301;56;21070;-73
2020/12/09 11:46:26;;;;;;;10.23;5.12;;;7.80;70.70;;;;;;2231768;56;21823;-73
2020/12/09 11:48:53;;;;;;;9.68;4.75;;;7.80;70.60;;;;;;2228302;55;21519;-73
2020/12/09 11:51:22;;;;;;;9.13;4.72;;;7.80;70.70;;;;;;2228708;55;21037;-72
2020/12/09 11:53:49;;;;;;;9.70;5.40;;;7.80;70.80;;;;;;2459651;55;21024;-73
2020/12/09 11:56:26;;;;;;;10.52;5.35;;;7.80;70.90;;;;;;2234504;55;21046;-73
2020/12/09 11:58:53;;;;;;;9.30;5.40;;;7.80;70.80;;;;;;2446990;55;21020;-73
2020/12/09 12:01:21;;;;;;;9.20;5.05;;;7.80;71.10;;;;;;2229989;55;20998;-73
2020/12/09 12:03:50;;;;;;;10.45;5.25;;;7.80;71.20;;;;;;2454683;55;21385;-73
2020/12/09 12:06:24;;;;;;;7.18;4.22;;;7.80;71.30;;;;;;2229203;56;21062;-73
2020/12/09 12:08:58;;;;;;;8.98;5.18;;;7.80;71.30;;;;;;2440431;55;20994;-73
2020/12/09 12:11:24;;;;;;;9.38;4.55;;;7.80;71.40;;;;;;2227342;56;21016;-73
2020/12/09 12:13:51;;;;;;;9.65;4.97;;;7.80;71.30;;;;;;2460490;55;21001;-73
2020/12/09 12:16:23;;;;;;;9.07;5.32;;;7.80;71.20;;;;;;2230195;56;20984;-73
2020/12/09 12:18:52;;;;;;;9.70;5.10;;;7.80;71.10;;;;;;2445870;55;20988;-73
2020/12/09 12:21:20;;;;;;;9.13;5.35;;;7.80;71.20;;;;;;2237509;56;21044;-72
2020/12/09 12:23:48;;;;;;;8.57;5.03;;;7.80;71.20;;;;;;2237896;56;20973;-73
2020/12/09 12:26:19;;;;;;;9.48;5.55;;;7.80;71.40;;;;;;2454151;55;20954;-72
2020/12/09 12:28:46;;;;;;;9.00;4.70;;;7.90;71.50;;;;;;2231313;55;21015;-72
2020/12/09 12:31:13;;;;;;;8.15;4.55;;;7.90;71.40;;;;;;2234699;56;20995;-73
2020/12/09 12:33:40;;;;;;;9.30;4.53;;;7.90;71.30;;;;;;2451729;55;21036;-73
2020/12/09 12:36:07;;;;;;;8.70;4.87;;;7.90;71.30;;;;;;2461501;55;20944;-73
2020/12/09 12:38:34;;;;;;;9.75;5.20;;;7.90;71.20;;;;;;2237623;56;21136;-73
2020/12/09 12:41:01;;;;;;;8.40;4.37;;;7.90;71.20;;;;;;2449492;56;20983;-73
2020/12/09 12:43:28;;;;;;;8.80;4.47;;;8.00;71.20;;;;;;2227582;55;21518;-73
2020/12/09 12:45:56;;;;;;;8.30;4.32;;;8.00;71.20;;;;;;2229923;56;21427;-73
2020/12/09 12:48:23;;;;;;;8.02;4.28;;;7.90;70.90;;;;;;2232879;56;20971;-73
2020/12/09 12:50:49;;;;;;;8.02;4.40;;;7.90;70.80;;;;;;2227944;56;21043;-73
2020/12/09 12:53:16;;;;;;;8.05;4.37;;;7.90;70.70;;;;;;2231050;56;21028;-73